Time;durP1;ratioP1;P1;durP2;ratioP2;P2;SDS_P1;SDS_P2;PMS_P1;PMS_P2;Temp;Humidity;BMP_temperature;BMP_pressure;BME280_temperature;BME280_humidity;BME280_pressure;Samples;Min_cycle;Max_cycle;Signal;HPM_P1;HPM_P2
2021/09/17 00:00:16;;;;;;;5.60;4.20;;;;;;;12.13;93.27;101086.66;694924;28;1349;-52
2021/09/17 00:00:37;;;;;;;5.72;4.18;;;;;;;12.06;94.29;101082.31;693679;28;1054;-55
2021/09/17 00:00:57;;;;;;;7.10;4.10;;;;;;;11.99;94.20;101086.69;694480;28;1032;-54
2021/09/17 00:01:19;;;;;;;6.80;4.10;;;;;;;11.95;94.35;101077.13;694011;28;4672;-54
2021/09/17 00:01:39;;;;;;;7.78;4.38;;;;;;;11.95;94.89;101081.47;693967;28;1161;-53
2021/09/17 00:02:02;;;;;;;6.87;4.53;;;;;;;11.93;94.37;101076.19;694223;28;3362;-52
2021/09/17 00:02:22;;;;;;;6.55;4.38;;;;;;;11.96;94.77;101081.44;694446;28;1249;-53
2021/09/17 00:02:42;;;;;;;6.75;4.47;;;;;;;11.99;95.35;101080.56;693866;28;1455;-54
2021/09/17 00:03:03;;;;;;;7.53;4.20;;;;;;;12.00;95.23;101084.94;694006;28;1056;-50
2021/09/17 00:03:25;;;;;;;8.10;4.40;;;;;;;11.98;95.05;101082.34;694717;28;1115;-54
2021/09/17 00:03:45;;;;;;;5.85;4.20;;;;;;;12.05;94.72;101077.94;692982;28;1070;-54
2021/09/17 00:04:06;;;;;;;6.17;4.03;;;;;;;12.09;94.29;101079.69;694523;28;958;-52
2021/09/17 00:04:26;;;;;;;6.73;4.10;;;;;;;12.11;94.20;101083.16;695145;28;4316;-56
2021/09/17 00:04:46;;;;;;;6.15;4.35;;;;;;;12.11;94.05;101080.53;697011;28;1090;-55
2021/09/17 00:05:08;;;;;;;7.67;4.50;;;;;;;12.09;94.44;101082.28;696866;28;3882;-54
2021/09/17 00:05:29;;;;;;;7.45;4.53;;;;;;;12.05;94.49;101081.44;696958;28;1103;-53
2021/09/17 00:05:49;;;;;;;7.05;4.20;;;;;;;12.04;94.56;101084.06;696388;28;1697;-52
2021/09/17 00:06:10;;;;;;;8.33;3.97;;;;;;;12.02;94.41;101080.59;696228;28;1090;-54
2021/09/17 00:06:30;;;;;;;8.43;4.28;;;;;;;11.98;94.71;101082.34;697601;28;1217;-52
2021/09/17 00:06:51;;;;;;;6.67;4.27;;;;;;;11.96;95.18;101085.84;697476;28;1269;-54
2021/09/17 00:07:11;;;;;;;7.55;4.50;;;;;;;11.96;94.62;101080.59;697568;28;1234;-53
2021/09/17 00:07:32;;;;;;;8.17;4.47;;;;;;;11.99;94.73;101080.56;694756;28;4551;-56
2021/09/17 00:07:53;;;;;;;8.20;4.28;;;;;;;12.02;94.69;101085.81;693018;28;1979;-55
2021/09/17 00:08:16;;;;;;;6.13;4.00;;;;;;;12.06;94.44;101079.69;694869;28;1166;-53
2021/09/17 00:08:36;;;;;;;6.28;3.90;;;;;;;12.06;94.04;101080.56;693975;28;3349;-53
2021/09/17 00:08:56;;;;;;;6.47;4.07;;;;;;;12.07;94.03;101078.78;695063;28;1249;-53
2021/09/17 00:09:20;;;;;;;6.65;4.10;;;;;;;12.08;94.29;101080.53;693724;28;1214;-55
2021/09/17 00:09:40;;;;;;;6.03;4.20;;;;;;;12.07;94.38;101078.78;694170;28;1310;-54
2021/09/17 00:10:00;;;;;;;7.00;4.40;;;;;;;12.06;94.25;101079.69;694539;28;1207;-53
2021/09/17 00:10:21;;;;;;;6.75;4.43;;;;;;;12.02;94.41;101078.81;693963;28;4419;-52
2021/09/17 00:10:42;;;;;;;6.63;4.50;;;;;;;11.98;94.81;101079.72;694264;28;1086;-54
2021/09/17 00:11:03;;;;;;;7.77;4.33;;;;;;;12.04;94.13;101078.81;694449;28;1150;-52
2021/09/17 00:11:23;;;;;;;8.63;4.45;;;;;;;12.03;94.09;101087.53;694848;28;1958;-52
2021/09/17 00:11:44;;;;;;;8.40;4.40;;;;;;;11.98;93.93;101081.47;694305;28;3732;-55
2021/09/17 00:12:04;;;;;;;7.25;4.10;;;;;;;11.98;94.18;101081.47;694355;28;1285;-53
2021/09/17 00:12:25;;;;;;;6.60;4.10;;;;;;;11.93;94.05;101073.56;694583;28;1058;-55
2021/09/17 00:12:46;;;;;;;7.18;4.10;;;;;;;11.86;94.88;101083.19;694630;28;1051;-52
2021/09/17 00:13:06;;;;;;;7.97;4.30;;;;;;;11.83;94.71;101075.38;694803;28;1098;-52
2021/09/17 00:13:27;;;;;;;7.83;4.57;;;;;;;11.83;94.94;101077.13;696386;28;4469;-53
2021/09/17 00:13:47;;;;;;;6.80;4.20;;;;;;;11.86;94.68;101082.34;697285;28;1170;-52
2021/09/17 00:14:08;;;;;;;7.10;4.23;;;;;;;11.90;95.32;101076.22;697419;28;1131;-54
2021/09/17 00:14:34;;;;;;;6.55;4.03;;;;;;;12.01;94.38;101078.84;697076;28;3950;-54
2021/09/17 00:14:55;;;;;;;6.03;3.95;;;;;;;12.08;94.33;101080.53;697214;28;1163;-52
2021/09/17 00:15:16;;;;;;;7.63;4.28;;;;;;;12.09;93.79;101077.06;697270;28;1320;-52
2021/09/17 00:15:36;;;;;;;6.82;4.20;;;;;;;12.07;93.26;101077.06;697129;28;3905;-55
2021/09/17 00:15:57;;;;;;;7.15;4.20;;;;;;;12.02;93.62;101080.59;697499;28;1026;-56
2021/09/17 00:16:17;;;;;;;6.50;4.33;;;;;;;11.93;94.05;101078.81;695569;28;4472;-55
2021/09/17 00:16:38;;;;;;;8.18;4.15;;;;;;;11.88;93.91;101075.34;696493;28;1101;-52
2021/09/17 00:16:58;;;;;;;8.63;4.30;;;;;;;11.86;94.34;101079.72;697715;28;1031;-55
2021/09/17 00:17:19;;;;;;;8.13;4.20;;;;;;;11.86;94.23;101077.09;697428;28;3082;-51
2021/09/17 00:17:40;;;;;;;7.85;4.10;;;;;;;11.91;94.49;101076.22;696337;28;3502;-54
2021/09/17 00:18:00;;;;;;;7.40;4.10;;;;;;;11.95;94.64;101077.13;696954;28;1212;-55
2021/09/17 00:18:21;;;;;;;6.53;4.10;;;;;;;12.00;94.23;101077.94;696973;28;986;-52
2021/09/17 00:18:41;;;;;;;6.97;4.27;;;;;;;12.02;94.02;101078.81;697102;28;1286;-52
2021/09/17 00:19:02;;;;;;;6.45;4.13;;;;;;;12.02;93.84;101075.34;697362;28;1166;-51
2021/09/17 00:19:22;;;;;;;7.97;4.30;;;;;;;12.02;93.55;101075.34;697082;28;4321;-53
2021/09/17 00:19:42;;;;;;;6.72;4.00;;;;;;;12.01;93.93;101076.22;696726;28;1039;-53
2021/09/17 00:20:05;;;;;;;6.93;4.20;;;;;;;11.98;93.99;101069.22;697070;28;1414;-51
2021/09/17 00:20:25;;;;;;;6.18;4.15;;;;;;;11.98;94.13;101071.84;696951;28;3518;-56
2021/09/17 00:20:46;;;;;;;6.57;4.07;;;;;;;12.00;94.26;101071.84;696564;28;1453;-52
2021/09/17 00:21:06;;;;;;;7.00;4.47;;;;;;;11.99;94.48;101067.47;697014;28;1223;-52
2021/09/17 00:21:26;;;;;;;6.37;4.23;;;;;;;12.00;94.41;101071.84;697249;28;1242;-54
2021/09/17 00:21:47;;;;;;;5.90;4.28;;;;;;;12.03;93.78;101069.19;696985;28;1272;-52
2021/09/17 00:22:07;;;;;;;6.17;4.40;;;;;;;12.04;93.85;101068.34;697557;28;1318;-56
2021/09/17 00:22:27;;;;;;;6.37;4.60;;;;;;;12.08;93.50;101065.69;696559;28;4872;-54
2021/09/17 00:22:48;;;;;;;6.78;4.20;;;;;;;12.07;93.28;101068.31;693993;28;1249;-50
2021/09/17 00:23:08;;;;;;;7.53;4.40;;;;;;;12.04;94.14;101070.94;694476;28;3308;-52
2021/09/17 00:23:29;;;;;;;7.25;4.30;;;;;;;11.98;93.97;101073.63;693592;28;3363;-52
2021/09/17 00:23:49;;;;;;;6.20;4.20;;;;;;;11.90;94.34;101070.97;693898;28;1256;-54
2021/09/17 00:24:09;;;;;;;6.60;4.35;;;;;;;11.86;95.07;101075.34;691140;28;1235;-55
2021/09/17 00:24:30;;;;;;;7.60;4.63;;;;;;;11.83;95.33;101067.50;691537;28;1152;-52
2021/09/17 00:24:50;;;;;;;6.97;4.87;;;;;;;11.79;95.52;101071.00;693526;28;1306;-52
2021/09/17 00:25:11;;;;;;;8.43;4.78;;;;;;;11.77;95.15;101070.16;694757;28;1290;-52
2021/09/17 00:25:31;;;;;;;8.33;4.50;;;;;;;11.78;95.14;101071.88;696293;28;4304;-55
2021/09/17 00:25:52;;;;;;;8.52;4.68;;;;;;;11.77;95.11;101078.00;696973;28;1318;-51
2021/09/17 00:26:12;;;;;;;7.20;4.50;;;;;;;11.76;95.15;101078.88;696657;28;3261;-52
2021/09/17 00:26:33;;;;;;;7.30;4.57;;;;;;;11.77;95.16;101070.16;696049;28;2201;-55
2021/09/17 00:26:53;;;;;;;6.87;4.60;;;;;;;11.77;95.32;101078.00;696373;28;1099;-55
2021/09/17 00:27:13;;;;;;;6.97;4.88;;;;;;;11.77;95.87;101078.00;696572;28;1145;-52
2021/09/17 00:27:34;;;;;;;6.43;4.97;;;;;;;11.76;95.92;101078.88;696340;28;1087;-55
2021/09/17 00:27:54;;;;;;;6.30;4.90;;;;;;;11.73;95.71;101073.66;696187;28;1974;-51
2021/09/17 00:28:15;;;;;;;7.30;4.67;;;;;;;11.69;95.98;101069.31;696679;28;4485;-52
2021/09/17 00:28:35;;;;;;;6.70;4.70;;;;;;;11.68;96.39;101080.66;697196;28;1155;-52
2021/09/17 00:28:55;;;;;;;6.40;4.50;;;;;;;11.64;96.16;101078.91;697207;28;1159;-56
2021/09/17 00:29:16;;;;;;;6.57;4.50;;;;;;;11.61;96.00;101076.31;697520;28;3593;-52
2021/09/17 00:29:36;;;;;;;7.63;4.63;;;;;;;11.58;96.18;101074.56;696934;28;3948;-51
2021/09/17 00:29:57;;;;;;;7.17;4.90;;;;;;;11.58;96.54;101071.94;696851;28;1425;-54
2021/09/17 00:30:17;;;;;;;6.10;4.88;;;;;;;11.62;96.82;101075.44;696910;28;1150;-55
2021/09/17 00:30:38;;;;;;;6.20;4.80;;;;;;;11.64;96.85;101078.91;697707;28;1347;-53
2021/09/17 00:30:58;;;;;;;6.53;4.80;;;;;;;11.64;96.40;101076.28;697063;28;1209;-50
2021/09/17 00:31:18;;;;;;;6.20;4.50;;;;;;;11.63;96.55;101077.16;697255;28;4602;-51
2021/09/17 00:31:39;;;;;;;7.00;4.67;;;;;;;11.61;96.33;101074.56;696141;28;1039;-55
2021/09/17 00:31:59;;;;;;;7.32;5.07;;;;;;;11.59;96.89;101077.19;697298;28;1317;-52
2021/09/17 00:32:20;;;;;;;8.50;5.20;;;;;;;11.58;96.50;101075.44;696949;28;3738;-53
2021/09/17 00:32:40;;;;;;;8.83;5.03;;;;;;;11.59;96.63;101071.09;697082;28;1344;-56
2021/09/17 00:33:03;;;;;;;6.20;4.80;;;;;;;11.61;96.32;101069.31;697172;28;1352;-55
2021/09/17 00:33:24;;;;;;;7.60;4.90;;;;;;;11.61;96.59;101079.78;697772;28;1138;-55
2021/09/17 00:33:44;;;;;;;6.97;4.63;;;;;;;11.61;96.52;101071.94;696992;28;1072;-53
2021/09/17 00:34:04;;;;;;;7.20;4.90;;;;;;;11.61;96.84;101069.31;697476;28;1249;-52
2021/09/17 00:34:25;;;;;;;7.00;4.93;;;;;;;11.61;97.28;101063.22;695378;28;4439;-52
2021/09/17 00:34:45;;;;;;;8.38;4.97;;;;;;;11.58;97.41;101067.56;696133;28;1158;-55
2021/09/17 00:35:06;;;;;;;7.50;4.87;;;;;;;11.55;97.42;101066.72;696634;28;3260;-54
2021/09/17 00:35:27;;;;;;;7.10;4.90;;;;;;;11.51;97.59;101065.84;695903;28;3579;-54
2021/09/17 00:35:47;;;;;;;6.28;4.97;;;;;;;11.47;97.81;101071.09;696466;28;1221;-54
2021/09/17 00:36:07;;;;;;;7.57;4.90;;;;;;;11.46;97.91;101070.22;696812;28;1292;-53
2021/09/17 00:36:28;;;;;;;7.90;5.10;;;;;;;11.43;98.08;101067.59;697193;28;1238;-52
2021/09/17 00:36:48;;;;;;;5.93;5.03;;;;;;;11.42;98.06;101068.47;696654;28;1319;-53
2021/09/17 00:37:08;;;;;;;6.30;4.90;;;;;;;11.40;97.98;101070.25;696531;28;1290;-52
2021/09/17 00:37:29;;;;;;;7.32;4.85;;;;;;;11.38;97.70;101067.63;696498;28;4431;-54
2021/09/17 00:37:49;;;;;;;7.07;4.80;;;;;;;11.38;97.87;101069.34;696939;28;1068;-53
2021/09/17 00:38:10;;;;;;;7.70;4.90;;;;;;;11.37;97.93;101065.88;696969;28;3056;-55
2021/09/17 00:38:30;;;;;;;7.03;4.90;;;;;;;11.36;98.31;101069.34;696595;28;3738;-52
2021/09/17 00:38:50;;;;;;;7.68;4.97;;;;;;;11.38;98.09;101066.72;696725;28;1458;-52
2021/09/17 00:39:13;;;;;;;7.07;4.90;;;;;;;11.39;97.77;101065.88;697618;28;1300;-52
2021/09/17 00:39:33;;;;;;;6.15;4.97;;;;;;;11.40;98.18;101065.88;697850;28;1087;-52
2021/09/17 00:39:54;;;;;;;6.97;5.10;;;;;;;11.43;97.87;101066.75;697436;28;1512;-53
2021/09/17 00:40:14;;;;;;;7.37;5.20;;;;;;;11.42;97.48;101065.84;698021;28;1342;-53
2021/09/17 00:40:34;;;;;;;6.70;5.00;;;;;;;11.40;97.92;101065.88;702058;28;5830;-54
2021/09/17 00:40:55;;;;;;;9.03;5.33;;;;;;;11.36;98.51;101064.13;702489;28;1146;-54
2021/09/17 00:41:15;;;;;;;9.63;5.70;;;;;;;11.36;98.90;101071.13;701266;28;3477;-53
2021/09/17 00:41:36;;;;;;;7.87;5.60;;;;;;;11.32;99.14;101067.63;702976;28;1324;-55
2021/09/17 00:41:57;;;;;;;9.13;5.88;;;;;;;11.30;99.23;101066.78;702074;28;1431;-53
2021/09/17 00:42:17;;;;;;;8.52;5.60;;;;;;;11.26;99.08;101067.66;702890;28;1089;-54
2021/09/17 00:42:39;;;;;;;8.57;5.83;;;;;;;11.24;98.85;101067.66;697759;28;1384;-54
2021/09/17 00:42:59;;;;;;;7.85;5.70;;;;;;;11.23;99.23;101068.50;697871;28;1325;-54
2021/09/17 00:43:19;;;;;;;9.60;5.83;;;;;;;11.24;99.70;101070.25;697091;28;4717;-56
2021/09/17 00:43:40;;;;;;;9.32;5.90;;;;;;;11.25;100.00;101064.13;697675;28;1110;-55
2021/09/17 00:44:01;;;;;;;8.18;6.18;;;;;;;11.25;100.00;101065.91;697526;28;3348;-53
2021/09/17 00:44:24;;;;;;;9.70;6.53;;;;;;;11.25;99.90;101065.91;697450;28;5392;-52
2021/09/17 00:44:44;;;;;;;9.15;6.40;;;;;;;11.25;99.15;101071.97;697141;28;1380;-51
2021/09/17 00:45:06;;;;;;;10.00;6.43;;;;;;;11.27;98.89;101063.28;697979;28;1154;-54
2021/09/17 00:45:27;;;;;;;9.38;6.25;;;;;;;11.27;99.05;101068.50;697007;28;1230;-53
2021/09/17 00:45:47;;;;;;;10.05;6.75;;;;;;;11.27;99.04;101069.41;697798;28;1252;-55
2021/09/17 00:46:08;;;;;;;10.43;7.10;;;;;;;11.26;99.60;101067.66;697834;28;1257;-54
2021/09/17 00:46:28;;;;;;;9.75;6.80;;;;;;;11.25;99.83;101061.53;696820;28;4566;-51
2021/09/17 00:46:49;;;;;;;10.30;7.33;;;;;;;11.27;99.94;101063.28;696513;28;1193;-56
2021/09/17 00:47:10;;;;;;;9.77;7.82;;;;;;;11.27;100.00;101066.78;696345;28;3552;-56
2021/09/17 00:47:30;;;;;;;9.52;7.90;;;;;;;11.28;100.00;101065.03;697302;28;1272;-51
2021/09/17 00:47:51;;;;;;;10.37;7.90;;;;;;;11.28;100.00;101065.88;697367;28;1920;-53
2021/09/17 00:48:11;;;;;;;11.13;7.82;;;;;;;11.30;99.86;101063.25;694766;28;1195;-53
2021/09/17 00:48:32;;;;;;;10.17;7.63;;;;;;;11.31;99.63;101062.41;697569;28;1302;-51
2021/09/17 00:48:52;;;;;;;10.38;7.60;;;;;;;11.32;99.40;101061.53;697267;28;1253;-53
2021/09/17 00:49:13;;;;;;;10.63;7.50;;;;;;;11.36;99.11;101068.50;697182;28;1352;-51
2021/09/17 00:49:33;;;;;;;11.95;7.60;;;;;;;11.32;98.97;101072.00;696060;28;4570;-53
2021/09/17 00:49:53;;;;;;;9.17;7.10;;;;;;;11.34;98.86;101055.41;696109;28;1870;-50
2021/09/17 00:50:17;;;;;;;9.82;7.13;;;;;;;11.38;98.49;101062.41;697691;28;3577;-54
2021/09/17 00:50:37;;;;;;;10.73;7.35;;;;;;;11.40;98.38;101067.63;697015;28;1353;-54
2021/09/17 00:50:58;;;;;;;12.70;7.30;;;;;;;11.38;98.43;101062.41;697715;28;1213;-54
2021/09/17 00:51:18;;;;;;;11.07;7.47;;;;;;;11.38;98.73;101069.34;698115;28;1363;-52
2021/09/17 00:51:39;;;;;;;10.38;8.00;;;;;;;11.38;98.86;101058.88;697487;28;1185;-52
2021/09/17 00:51:59;;;;;;;10.57;7.50;;;;;;;11.43;98.21;101064.13;697643;28;1414;-54
2021/09/17 00:52:20;;;;;;;10.07;7.20;;;;;;;11.45;98.68;101070.22;696262;28;4908;-56
2021/09/17 00:52:41;;;;;;;10.07;7.13;;;;;;;11.43;98.38;101067.59;694687;28;1317;-55
2021/09/17 00:53:01;;;;;;;10.57;7.50;;;;;;;11.41;98.17;101070.22;692801;28;3481;-54
2021/09/17 00:53:21;;;;;;;10.02;7.18;;;;;;;11.42;98.56;101060.63;693177;28;1425;-53
2021/09/17 00:53:42;;;;;;;9.73;7.40;;;;;;;11.44;98.90;101065.84;693255;28;1480;-52
2021/09/17 00:54:05;;;;;;;10.02;7.43;;;;;;;11.45;99.06;101063.25;692564;28;1177;-55
2021/09/17 00:54:26;;;;;;;11.32;7.30;;;;;;;11.46;98.55;101058.88;694388;28;1160;-51
2021/09/17 00:54:47;;;;;;;9.55;7.05;;;;;;;11.45;98.73;101058.03;694353;28;1226;-51
2021/09/17 00:55:08;;;;;;;8.63;7.00;;;;;;;11.47;98.04;101056.25;694611;28;1282;-53
2021/09/17 00:55:29;;;;;;;9.60;7.22;;;;;;;11.47;98.13;101064.13;695096;28;4634;-52
2021/09/17 00:55:49;;;;;;;10.57;7.47;;;;;;;11.48;98.39;101060.63;697013;28;3163;-54
2021/09/17 00:56:09;;;;;;;10.70;7.17;;;;;;;11.50;98.26;101064.09;697124;28;3522;-54
2021/09/17 00:56:30;;;;;;;8.25;6.93;;;;;;;11.51;98.25;101060.63;697255;28;1511;-55
2021/09/17 00:56:51;;;;;;;8.17;6.80;;;;;;;11.52;98.62;101062.38;697447;28;1213;-53
2021/09/17 00:57:12;;;;;;;8.65;7.00;;;;;;;11.52;98.61;101062.38;697154;28;1179;-56
2021/09/17 00:57:34;;;;;;;9.00;6.72;;;;;;;11.52;98.84;101059.75;696930;28;1453;-54
2021/09/17 00:57:56;;;;;;;9.60;6.88;;;;;;;11.53;99.09;101058.88;696713;28;1150;-53
2021/09/17 00:58:16;;;;;;;9.52;6.82;;;;;;;11.53;99.10;101060.59;696479;28;4426;-52
2021/09/17 00:58:37;;;;;;;8.15;6.70;;;;;;;11.51;98.81;101060.63;697193;28;1210;-54
2021/09/17 00:58:58;;;;;;;8.37;6.63;;;;;;;11.52;98.72;101058.84;696509;28;3607;-52
2021/09/17 00:59:18;;;;;;;9.07;6.50;;;;;;;11.55;98.48;101061.50;697559;28;1313;-54
2021/09/17 00:59:38;;;;;;;9.65;6.78;;;;;;;11.57;98.60;101062.34;696946;28;1127;-55
2021/09/17 00:59:59;;;;;;;8.63;6.60;;;;;;;11.58;98.62;101056.25;696765;28;1197;-52
2021/09/17 01:00:19;;;;;;;8.85;6.50;;;;;;;11.58;98.70;101054.47;697521;28;1114;-57
2021/09/17 01:00:40;;;;;;;9.90;6.47;;;;;;;11.60;98.44;101062.31;697441;28;1238;-55
2021/09/17 01:01:00;;;;;;;11.80;6.78;;;;;;;11.57;98.67;101058.00;697967;28;1348;-54
2021/09/17 01:01:20;;;;;;;9.13;6.53;;;;;;;11.57;98.62;101057.09;696693;28;4627;-57
2021/09/17 01:01:41;;;;;;;9.53;6.60;;;;;;;11.56;98.64;101051.00;694075;28;1447;-55
2021/09/17 01:02:03;;;;;;;8.85;6.55;;;;;;;11.57;98.54;101055.38;694197;28;3855;-53
2021/09/17 01:02:23;;;;;;;9.65;6.40;;;;;;;11.60;97.83;101057.09;694355;28;1269;-56
2021/09/17 01:02:43;;;;;;;8.93;5.93;;;;;;;11.66;97.72;101061.44;695221;28;1134;-52
2021/09/17 01:03:04;;;;;;;8.50;6.03;;;;;;;11.70;97.28;101057.94;695201;28;1087;-52
2021/09/17 01:03:24;;;;;;;8.05;6.25;;;;;;;11.68;97.60;101055.31;695236;28;1176;-54
2021/09/17 01:03:44;;;;;;;10.70;6.50;;;;;;;11.66;97.44;101059.72;694662;28;1352;-51
2021/09/17 01:04:09;;;;;;;9.05;6.53;;;;;;;11.63;97.95;101059.72;694224;28;1210;-53
2021/09/17 01:04:30;;;;;;;9.35;6.20;;;;;;;11.62;97.65;101060.59;693963;28;4541;-54
2021/09/17 01:04:50;;;;;;;8.27;6.28;;;;;;;11.62;97.62;101059.72;691113;28;3084;-55
2021/09/17 01:05:12;;;;;;;8.43;6.53;;;;;;;11.64;97.84;101052.72;691944;28;3732;-55
2021/09/17 01:05:33;;;;;;;7.85;6.30;;;;;;;11.66;97.51;101053.56;692022;28;1450;-55
2021/09/17 01:05:54;;;;;;;8.60;6.20;;;;;;;11.69;97.61;101062.31;691903;28;1107;-54
2021/09/17 01:06:14;;;;;;;8.60;6.33;;;;;;;11.69;97.75;101057.06;691563;28;1147;-55
2021/09/17 01:06:36;;;;;;;8.60;6.15;;;;;;;11.69;97.80;101057.06;691416;28;1282;-56
2021/09/17 01:06:58;;;;;;;8.45;6.03;;;;;;;11.70;96.98;101064.06;694577;28;1194;-52
2021/09/17 01:07:18;;;;;;;7.32;5.75;;;;;;;11.71;96.95;101057.97;694435;28;4314;-53
2021/09/17 01:07:39;;;;;;;7.47;5.60;;;;;;;11.75;96.63;101061.41;696415;28;3163;-56
2021/09/17 01:07:59;;;;;;;7.93;5.68;;;;;;;11.75;96.87;101058.78;696765;28;3428;-52
2021/09/17 01:08:23;;;;;;;9.53;5.47;;;;;;;11.74;97.23;101059.66;697277;28;1371;-55
2021/09/17 01:08:43;;;;;;;8.73;5.38;;;;;;;11.72;97.36;101058.81;697311;28;1203;-53
2021/09/17 01:09:06;;;;;;;8.07;5.37;;;;;;;11.70;97.86;101060.56;698187;28;1344;-53
2021/09/17 01:09:27;;;;;;;7.80;5.53;;;;;;;11.71;98.38;101054.44;697883;28;1233;-54
2021/09/17 01:09:48;;;;;;;9.07;5.60;;;;;;;11.69;98.55;101062.31;696947;28;1146;-54
2021/09/17 01:10:09;;;;;;;8.77;5.90;;;;;;;11.69;98.76;101061.44;697877;28;1189;-53
2021/09/17 01:10:32;;;;;;;7.65;6.07;;;;;;;11.69;98.97;101058.84;697369;28;4416;-51
2021/09/17 01:10:53;;;;;;;9.63;6.43;;;;;;;11.67;99.00;101064.06;697194;28;4189;-56
2021/09/17 01:11:13;;;;;;;8.47;6.20;;;;;;;11.64;98.99;101053.59;697275;28;1142;-53
2021/09/17 01:11:34;;;;;;;9.35;6.35;;;;;;;11.64;99.35;101053.59;697795;28;1111;-53
2021/09/17 01:11:55;;;;;;;8.70;6.60;;;;;;;11.64;98.55;101057.97;697704;28;1221;-53
2021/09/17 01:12:16;;;;;;;8.33;5.87;;;;;;;11.67;97.90;101052.72;697333;28;1304;-55
2021/09/17 01:12:38;;;;;;;8.20;5.38;;;;;;;11.71;97.79;101052.72;696520;28;1451;-56
2021/09/17 01:12:59;;;;;;;8.15;5.60;;;;;;;11.76;97.75;101055.31;697040;28;1243;-55
2021/09/17 01:13:21;;;;;;;7.60;5.30;;;;;;;11.81;97.45;101056.19;697285;28;4399;-56
2021/09/17 01:13:43;;;;;;;6.93;5.15;;;;;;;11.81;97.44;101061.41;696844;28;3140;-53
2021/09/17 01:14:04;;;;;;;7.75;5.60;;;;;;;11.77;97.76;101054.44;697356;28;1285;-53
2021/09/17 01:14:24;;;;;;;7.27;5.63;;;;;;;11.74;97.91;101051.81;697713;28;1371;-53
2021/09/17 01:14:44;;;;;;;8.48;5.68;;;;;;;11.72;98.49;101058.81;697326;28;1060;-57
2021/09/17 01:15:09;;;;;;;9.50;5.77;;;;;;;11.74;98.11;101059.66;698107;28;1454;-55
2021/09/17 01:15:30;;;;;;;8.20;5.00;;;;;;;11.78;97.82;101050.91;697558;28;3769;-52
2021/09/17 01:15:53;;;;;;;7.27;5.00;;;;;;;11.82;97.96;101054.41;697557;28;3120;-52
2021/09/17 01:16:13;;;;;;;7.32;5.35;;;;;;;11.80;98.19;101051.81;697960;28;1436;-53
2021/09/17 01:16:33;;;;;;;7.17;5.40;;;;;;;11.80;98.25;101053.56;696509;28;4398;-53
2021/09/17 01:16:54;;;;;;;8.70;5.70;;;;;;;11.80;98.12;101054.41;696644;28;3509;-55
2021/09/17 01:17:14;;;;;;;7.30;5.33;;;;;;;11.78;98.21;101061.41;697779;28;1199;-57
2021/09/17 01:17:38;;;;;;;7.50;5.40;;;;;;;11.78;98.28;101055.31;697498;28;1366;-55
2021/09/17 01:17:58;;;;;;;7.43;5.30;;;;;;;11.81;97.84;101056.19;697717;28;1175;-53
2021/09/17 01:18:19;;;;;;;8.05;5.30;;;;;;;11.82;98.60;101051.78;696918;28;1074;-53
2021/09/17 01:18:39;;;;;;;9.00;5.60;;;;;;;11.78;98.54;101053.53;697456;28;1086;-56
2021/09/17 01:19:00;;;;;;;7.90;5.43;;;;;;;11.75;98.16;101051.84;697651;28;1072;-55
2021/09/17 01:19:20;;;;;;;7.47;5.10;;;;;;;11.72;98.24;101054.44;697848;28;4540;-56
2021/09/17 01:19:40;;;;;;;6.93;5.10;;;;;;;11.75;97.43;101053.56;696926;28;2854;-53
2021/09/17 01:20:02;;;;;;;6.40;5.13;;;;;;;11.79;97.61;101051.81;697628;28;3771;-54
2021/09/17 01:20:23;;;;;;;7.03;5.47;;;;;;;11.80;97.96;101053.56;697531;28;1587;-52
2021/09/17 01:20:43;;;;;;;7.80;5.43;;;;;;;11.79;97.92;101057.91;697488;28;1043;-54
2021/09/17 01:21:03;;;;;;;7.07;5.20;;;;;;;11.80;98.10;101051.81;697936;28;1226;-54
2021/09/17 01:21:24;;;;;;;7.20;5.60;;;;;;;11.81;98.12;101056.19;697897;28;1237;-56
2021/09/17 01:21:45;;;;;;;7.70;5.40;;;;;;;11.81;98.52;101053.56;697735;28;1364;-54
2021/09/17 01:22:08;;;;;;;6.73;5.30;;;;;;;11.80;98.61;101051.81;698189;28;1149;-53
2021/09/17 01:22:28;;;;;;;7.35;5.40;;;;;;;11.80;98.45;101048.31;696940;28;4459;-52
2021/09/17 01:22:50;;;;;;;7.70;5.50;;;;;;;11.80;98.17;101050.94;697159;28;3472;-55
2021/09/17 01:23:11;;;;;;;8.65;5.63;;;;;;;11.81;98.38;101050.94;696910;28;1402;-55
2021/09/17 01:23:31;;;;;;;7.63;5.68;;;;;;;11.82;98.77;101050.03;697935;28;1344;-53
2021/09/17 01:23:51;;;;;;;9.47;5.60;;;;;;;11.82;98.25;101041.31;697705;28;1182;-54
2021/09/17 01:24:12;;;;;;;8.70;5.32;;;;;;;11.84;98.24;101052.69;698101;28;1309;-56
2021/09/17 01:24:33;;;;;;;7.37;5.00;;;;;;;11.85;98.15;101051.78;697904;28;1059;-54
2021/09/17 01:24:54;;;;;;;6.85;4.80;;;;;;;11.86;97.59;101043.91;697578;28;1359;-52
2021/09/17 01:25:17;;;;;;;7.67;5.00;;;;;;;11.88;97.42;101046.53;697407;28;1388;-56
2021/09/17 01:25:37;;;;;;;6.60;4.93;;;;;;;11.91;97.59;101046.53;696881;28;4702;-52
2021/09/17 01:25:58;;;;;;;7.35;5.20;;;;;;;11.92;97.95;101049.13;697850;28;1528;-54
2021/09/17 01:26:18;;;;;;;8.33;5.20;;;;;;;11.91;97.97;101051.78;697584;28;1543;-52
2021/09/17 01:26:39;;;;;;;7.82;5.05;;;;;;;11.91;97.05;101050.00;697013;28;1091;-53
2021/09/17 01:26:59;;;;;;;7.10;4.80;;;;;;;11.93;96.40;101045.66;697981;28;1114;-52
2021/09/17 01:27:21;;;;;;;6.78;4.47;;;;;;;11.98;96.66;101047.41;697847;28;1122;-55
2021/09/17 01:27:44;;;;;;;6.05;4.50;;;;;;;12.00;97.12;101045.66;697781;28;1110;-53
2021/09/17 01:28:04;;;;;;;6.90;4.63;;;;;;;11.99;97.63;101046.50;698008;28;1914;-55
2021/09/17 01:28:31;;;;;;;7.83;5.13;;;;;;;11.97;97.98;101040.41;695651;28;4331;-55
2021/09/17 01:28:51;;;;;;;7.82;5.40;;;;;;;11.95;98.11;101042.16;693471;28;3551;-54
2021/09/17 01:29:11;;;;;;;7.68;5.25;;;;;;;11.96;97.89;101038.66;694496;28;1302;-52
2021/09/17 01:29:32;;;;;;;7.57;5.30;;;;;;;11.98;97.93;101040.41;695136;28;1377;-55
2021/09/17 01:29:53;;;;;;;6.80;5.20;;;;;;;11.98;98.02;101036.94;694389;28;1459;-54
2021/09/17 01:30:14;;;;;;;6.97;5.13;;;;;;;11.99;97.50;101038.66;695228;28;1979;-53
2021/09/17 01:30:35;;;;;;;7.32;5.05;;;;;;;11.99;96.87;101033.41;694781;28;1247;-56
2021/09/17 01:30:56;;;;;;;6.65;5.10;;;;;;;12.01;96.92;101043.00;695088;28;1131;-53
2021/09/17 01:31:17;;;;;;;8.18;5.40;;;;;;;12.00;96.91;101036.03;694599;28;4490;-54
2021/09/17 01:31:39;;;;;;;8.48;5.63;;;;;;;11.98;97.35;101029.94;696636;28;3863;-53
2021/09/17 01:32:00;;;;;;;8.32;5.63;;;;;;;11.99;97.25;101043.88;697194;28;1114;-55
2021/09/17 01:32:21;;;;;;;9.13;5.82;;;;;;;11.99;96.85;101041.28;696526;28;1502;-56
2021/09/17 01:32:42;;;;;;;7.30;5.15;;;;;;;11.99;96.88;101041.28;696957;28;1067;-55
2021/09/17 01:33:02;;;;;;;7.75;5.43;;;;;;;11.98;96.76;101036.94;698118;28;1043;-54
2021/09/17 01:33:24;;;;;;;7.80;5.53;;;;;;;12.01;96.87;101042.16;697644;28;1229;-55
2021/09/17 01:33:45;;;;;;;7.45;5.30;;;;;;;12.00;97.20;101032.53;697648;28;1130;-52
2021/09/17 01:34:09;;;;;;;8.27;5.53;;;;;;;12.00;97.32;101041.25;698339;28;1206;-52
2021/09/17 01:34:29;;;;;;;7.13;5.20;;;;;;;12.02;97.29;101033.41;696795;28;4580;-53
2021/09/17 01:34:49;;;;;;;10.57;5.97;;;;;;;12.01;97.89;101035.16;697372;28;1158;-55
2021/09/17 01:35:13;;;;;;;9.30;6.00;;;;;;;11.98;98.47;101039.56;697511;28;1283;-53
2021/09/17 01:35:33;;;;;;;8.45;5.90;;;;;;;11.96;97.86;101034.28;697465;28;1481;-56
2021/09/17 01:36:06;;;;;;;9.30;5.78;;;;;;;11.97;97.57;101035.19;696486;28;1505;-56
2021/09/17 01:36:26;;;;;;;7.68;5.70;;;;;;;12.00;97.58;101030.78;696630;28;1123;-54
2021/09/17 01:36:49;;;;;;;7.77;5.20;;;;;;;12.04;97.08;101031.66;696523;28;1193;-56
2021/09/17 01:37:09;;;;;;;7.55;5.00;;;;;;;12.06;96.78;101035.16;697605;28;1356;-52
2021/09/17 01:37:30;;;;;;;8.00;4.87;;;;;;;12.09;96.21;101032.50;696517;28;4482;-57
2021/09/17 01:37:51;;;;;;;7.88;4.90;;;;;;;12.09;96.23;101035.97;695860;28;2304;-54
2021/09/17 01:38:12;;;;;;;8.80;5.35;;;;;;;12.09;96.45;101033.38;697607;28;1423;-56
2021/09/17 01:38:34;;;;;;;9.40;5.50;;;;;;;12.07;96.83;101029.00;697618;28;1389;-56
2021/09/17 01:38:54;;;;;;;9.98;5.53;;;;;;;12.06;97.06;101035.16;697262;28;1102;-57
2021/09/17 01:39:16;;;;;;;7.63;5.37;;;;;;;12.05;96.81;101033.41;698033;28;1071;-53
2021/09/17 01:39:36;;;;;;;8.07;5.47;;;;;;;12.07;96.43;101035.13;697532;28;1054;-54